This is the latest recevied weather packets stored in our database for station/object K7YVO. If no packets are shown the sender has not sent any weather packets the latest 10 day(s).
| Time | Temp. | Humidity | Pressure | Rain* | Wind** | Luminosity | Snow |
|---|---|---|---|---|---|---|---|
| 1777645489 | 12.22° C | 81% | 1019 hPa | 0 mm | - | 48 W/m² | - |
| 1777645184 | 11.67° C | 80% | 1018.6 hPa | 0 mm | - | 44 W/m² | - |
| 1777644880 | 11.67° C | 80% | 1018.7 hPa | 0 mm | - | 41 W/m² | - |
| 1777644578 | 11.67° C | 80% | 1018.6 hPa | 0 mm | - | 38 W/m² | - |
| 1777643970 | 11.67° C | 80% | 1018.5 hPa | 0 mm | - | 33 W/m² | - |
| 1777643365 | 11.11° C | 80% | 1018.5 hPa | 0 mm | - | 26 W/m² | - |
| 1777642758 | 11.11° C | 79% | 1018.2 hPa | 0 mm | - | 21 W/m² | - |
| 1777642455 | 11.11° C | 79% | 1018.1 hPa | 0 mm | - | 18 W/m² | - |
| 1777642151 | 11.11° C | 79% | 1018.1 hPa | 0 mm | - | 15 W/m² | - |
| 1777641849 | 11.11° C | 79% | 1018.1 hPa | 0 mm | - | 12 W/m² | - |
| 1777640941 | 11.11° C | 79% | 1018 hPa | 0 mm | - | 5 W/m² | - |
| 1777640333 | 11.11° C | 79% | 1018 hPa | 0 mm | - | 2 W/m² | - |
| 1777639727 | 11.11° C | 78% | 1017.8 hPa | 0 mm | - | 1 W/m² | - |
| 1777638817 | 11.67° C | 77% | 1018 hPa | 0 mm | - | 0 W/m² | - |
| 1777638512 | 11.67° C | 77% | 1018 hPa | 0 mm | - | 0 W/m² | - |
| 1777638209 | 11.67° C | 77% | 1017.9 hPa | 0 mm | - | 0 W/m² | - |
| 1777637905 | 11.67° C | 75% | 1017.7 hPa | 0 mm | - | 0 W/m² | - |
| 1777637601 | 11.67° C | 74% | 1018 hPa | 0 mm | - | 0 W/m² | - |
| 1777637299 | 12.22° C | 74% | 1018 hPa | 0 mm | - | 0 W/m² | - |
| 1777636995 | 12.22° C | 74% | 1017.8 hPa | 0 mm | - | 0 W/m² | - |
| 1777636691 | 12.78° C | 74% | 1017.9 hPa | 0 mm | - | 0 W/m² | - |
| 1777636388 | 12.78° C | 74% | 1017.7 hPa | 0 mm | - | 0 W/m² | - |
| 1777636083 | 12.78° C | 73% | 1017.9 hPa | 0 mm | - | 0 W/m² | - |
| 1777635475 | 13.33° C | 72% | 1017.9 hPa | 0 mm | - | 0 W/m² | - |
| 1777635172 | 13.33° C | 71% | 1018 hPa | 0 mm | - | 0 W/m² | - |
* Rain latest hour (hover to see other rain measurements)
** Current wind speed in m/s (hover to see current wind gust speed)